Time;durP1;ratioP1;P1;durP2;ratioP2;P2;SDS_P1;SDS_P2;PMS_P1;PMS_P2;Temp;Humidity;BMP_temperature;BMP_pressure;BME280_temperature;BME280_humidity;BME280_pressure;Samples;Min_cycle;Max_cycle;Signal;HPM_P1;HPM_P2
2022/04/26 03:38:41;;;;;;;10.07;8.07;;;;;;;13.08;58.02;97474.75;8086370;29;20244;-78
2022/04/26 03:42:45;;;;;;;11.07;9.70;;;;;;;13.03;58.45;97468.97;8092296;29;20244;-78
2022/04/26 03:46:49;;;;;;;13.23;12.03;;;;;;;13.05;58.51;97467.13;8092506;29;20237;-77
2022/04/26 03:50:52;;;;;;;11.07;9.97;;;;;;;12.85;59.06;97470.09;8092383;29;20241;-78
2022/04/26 03:54:55;;;;;;;10.33;9.17;;;;;;;12.78;59.80;97469.66;8092321;29;20246;-78
2022/04/26 03:58:59;;;;;;;12.13;9.57;;;;;;;12.54;60.56;97476.34;8092149;29;20451;-79
2022/04/26 04:03:02;;;;;;;9.93;9.03;;;;;;;12.75;59.87;97480.22;8092434;29;20237;-79
2022/04/26 04:07:05;;;;;;;10.90;9.40;;;;;;;12.27;61.43;97480.47;8092184;29;20259;-80
2022/04/26 04:11:08;;;;;;;10.63;8.30;;;;;;;11.99;62.28;97473.47;8092010;29;20260;-80
2022/04/26 04:15:13;;;;;;;9.27;8.03;;;;;;;11.91;62.46;97479.09;8091962;29;20252;-80
2022/04/26 04:19:20;;;;;;;8.73;7.93;;;;;;;12.34;61.51;97478.38;8091871;29;20248;-80
2022/04/26 04:23:23;;;;;;;9.73;8.53;;;;;;;12.10;61.86;97483.25;8096774;29;20253;-79
2022/04/26 04:27:26;;;;;;;8.93;8.07;;;;;;;11.99;62.93;97475.22;8097678;29;20422;-80
2022/04/26 04:31:31;;;;;;;9.47;8.47;;;;;;;11.91;63.04;97479.09;8097520;29;20256;-80
2022/04/26 04:35:34;;;;;;;11.97;10.00;;;;;;;11.91;62.81;97479.09;8097293;29;20248;-80
2022/04/26 04:39:36;;;;;;;11.33;8.73;;;;;;;11.86;63.22;97486.31;8097250;29;20237;-80
2022/04/26 04:43:39;;;;;;;9.80;8.90;;;;;;;11.52;64.72;97487.38;8097024;29;20248;-81
2022/04/26 04:47:44;;;;;;;12.17;9.10;;;;;;;11.53;65.09;97484.66;8097167;29;20261;-83
2022/04/26 04:51:46;;;;;;;12.27;10.03;;;;;;;11.49;64.86;97488.34;8096932;29;20245;-82
2022/04/26 04:55:49;;;;;;;11.20;9.33;;;;;;;11.66;64.69;97499.56;8097010;29;20237;-83
2022/04/26 04:59:52;;;;;;;10.17;9.13;;;;;;;11.67;64.77;97498.63;8096645;29;20245;-83
2022/04/26 05:03:57;;;;;;;9.93;8.93;;;;;;;11.85;64.37;97502.78;8183133;23;20236;-77
2022/04/26 05:08:00;;;;;;;10.50;9.43;;;;;;;11.77;64.53;97497.19;8180617;23;20421;-85
2022/04/26 05:12:03;;;;;;;11.10;9.83;;;;;;;11.73;64.94;97496.53;8158021;29;20240;-85
2022/04/26 05:16:06;;;;;;;13.73;9.47;;;;;;;11.35;66.46;97496.09;8158444;29;20246;-85
2022/04/26 05:20:12;;;;;;;12.60;10.87;;;;;;;11.09;67.38;97500.91;8158163;29;20300;-86
2022/04/26 05:28:35;;;;;;;11.03;9.87;;;;;;;11.33;66.37;97505.69;8157356;29;20251;-84
2022/04/26 05:32:38;;;;;;;12.10;10.00;;;;;;;11.28;67.06;97503.34;8156805;29;20251;-80
2022/04/26 05:36:42;;;;;;;10.13;8.80;;;;;;;11.67;65.73;97506.41;8157693;29;20246;-83
2022/04/26 05:40:45;;;;;;;12.50;10.33;;;;;;;11.35;66.69;97503.84;8157207;29;20240;-83
2022/04/26 05:44:48;;;;;;;10.80;9.70;;;;;;;11.51;66.04;97509.84;8157214;29;20263;-84
2022/04/26 05:48:51;;;;;;;14.87;11.80;;;;;;;11.61;66.07;97506.75;8157255;29;20240;-83
2022/04/26 05:52:55;;;;;;;11.07;9.90;;;;;;;11.55;66.12;97500.97;8157377;29;20240;-83
2022/04/26 05:56:58;;;;;;;11.57;10.37;;;;;;;11.54;66.20;97503.69;8157048;29;20255;-84
2022/04/26 06:01:02;;;;;;;14.60;10.40;;;;;;;11.62;66.81;97503.25;8156780;29;20248;-84
2022/04/26 06:05:06;;;;;;;16.00;11.83;;;;;;;11.41;67.10;97506.09;8156935;29;20248;-84
2022/04/26 06:09:13;;;;;;;14.50;11.40;;;;;;;11.33;67.31;97495.34;8156287;29;20244;-81
2022/04/26 06:13:16;;;;;;;14.37;10.47;;;;;;;10.78;69.47;97498.31;8156707;29;20248;-84
2022/04/26 06:17:19;;;;;;;12.27;10.97;;;;;;;10.80;68.82;97509.41;8156514;29;20246;-83
2022/04/26 06:21:22;;;;;;;11.67;10.47;;;;;;;11.15;68.25;97508.34;8155873;29;20242;-79
2022/04/26 06:25:26;;;;;;;12.77;10.80;;;;;;;11.17;68.05;97512.63;8156317;29;20434;-82
2022/04/26 06:29:29;;;;;;;12.67;11.43;;;;;;;11.31;67.93;97507.53;8156231;29;20436;-83
2022/04/26 06:33:34;;;;;;;18.53;11.20;;;;;;;11.40;68.16;97508.78;8156131;29;20244;-83
2022/04/26 06:37:37;;;;;;;13.50;11.83;;;;;;;11.57;67.38;97513.88;8156138;29;20251;-83
2022/04/26 06:41:42;;;;;;;12.80;11.40;;;;;;;11.52;67.81;97521.91;8155963;29;20248;-82
2022/04/26 06:45:46;;;;;;;13.10;11.47;;;;;;;11.43;68.10;97509.44;8155499;29;20240;-82
2022/04/26 06:49:49;;;;;;;13.27;11.93;;;;;;;11.31;68.64;97508.38;8155726;29;20247;-80
2022/04/26 06:53:52;;;;;;;13.70;12.20;;;;;;;11.29;68.87;97515.41;8155628;29;20236;-82
2022/04/26 06:57:56;;;;;;;14.37;12.13;;;;;;;11.28;69.27;97512.88;8155474;29;20409;-81
2022/04/26 07:01:59;;;;;;;13.20;11.87;;;;;;;11.03;69.84;97511.59;8155057;29;20239;-81
2022/04/26 07:06:02;;;;;;;14.10;11.70;;;;;;;11.07;70.38;97510.53;8155346;29;20240;-81
2022/04/26 07:10:06;;;;;;;13.63;12.30;;;;;;;10.92;71.20;97508.75;8155117;29;20259;-81
2022/04/26 07:14:10;;;;;;;13.07;11.70;;;;;;;11.29;70.00;97510.22;8154959;29;20572;-81
2022/04/26 07:18:19;;;;;;;12.27;11.13;;;;;;;11.33;69.35;97514.31;8155029;29;20436;-80
2022/04/26 07:22:23;;;;;;;15.27;12.80;;;;;;;11.34;69.07;97513.38;8154332;29;20240;-79
2022/04/26 07:26:26;;;;;;;13.93;12.37;;;;;;;11.23;69.68;97512.28;8154734;29;20244;-81
2022/04/26 07:30:34;;;;;;;14.43;12.87;;;;;;;11.17;70.40;97515.22;8154964;29;20251;-80
2022/04/26 07:34:37;;;;;;;13.93;12.20;;;;;;;11.23;70.87;97523.50;8154992;29;20605;-81
2022/04/26 07:38:40;;;;;;;14.67;13.03;;;;;;;11.13;70.95;97515.38;8154941;29;20439;-82
2022/04/26 07:42:43;;;;;;;14.17;12.67;;;;;;;11.26;70.57;97520.72;8154678;29;20244;-81
2022/04/26 07:46:48;;;;;;;15.13;13.27;;;;;;;11.16;70.92;97522.16;8154707;29;20243;-82
2022/04/26 07:50:51;;;;;;;14.20;12.80;;;;;;;11.25;70.96;97526.00;8154809;29;20250;-81
2022/04/26 07:54:54;;;;;;;17.60;13.80;;;;;;;11.02;71.91;97535.00;8154977;29;20238;-83
2022/04/26 07:58:58;;;;;;;14.33;12.93;;;;;;;11.22;71.19;97544.31;8160884;29;20240;-81
2022/04/26 08:03:03;;;;;;;15.53;14.03;;;;;;;11.27;70.30;97545.75;8160798;29;20441;-81
2022/04/26 08:07:06;;;;;;;14.70;13.20;;;;;;;11.63;69.58;97547.25;8160592;29;20307;-81
2022/04/26 08:11:12;;;;;;;14.00;12.70;;;;;;;11.65;69.61;97549.75;8160211;29;20577;-81
2022/04/26 08:15:18;;;;;;;17.20;14.63;;;;;;;11.57;69.35;97554.53;8160404;29;20240;-80
2022/04/26 08:19:22;;;;;;;15.40;13.90;;;;;;;12.04;68.16;97561.47;8160182;29;20248;-80
2022/04/26 08:23:25;;;;;;;12.77;11.53;;;;;;;12.10;68.17;97563.69;8159675;29;20250;-85
2022/04/26 08:27:30;;;;;;;13.73;12.47;;;;;;;12.11;67.97;97573.16;8159769;29;20240;-86
2022/04/26 08:31:33;;;;;;;13.90;12.50;;;;;;;12.38;66.98;97578.53;8159900;29;20473;-84
2022/04/26 08:35:38;;;;;;;12.43;11.23;;;;;;;12.54;66.73;97580.25;8159856;29;20562;-84
2022/04/26 08:40:04;;;;;;;12.10;11.00;;;;;;;12.63;66.09;97584.91;8159218;29;20243;-82
2022/04/26 08:44:11;;;;;;;24.03;18.57;;;;;;;12.75;65.87;97580.72;8159338;29;20264;-82
2022/04/26 08:52:47;;;;;;;11.50;10.40;;;;;;;12.83;65.04;97591.50;8127597;29;20240;-82
2022/04/26 08:56:50;;;;;;;10.63;9.73;;;;;;;12.81;65.30;97594.22;8127646;29;20542;-80
2022/04/26 09:01:08;;;;;;;11.17;10.17;;;;;;;12.91;65.07;97597.94;8139509;29;20550;-82
2022/04/26 09:05:13;;;;;;;11.23;10.13;;;;;;;13.00;64.68;97593.91;8158640;29;20308;-82
2022/04/26 09:09:21;;;;;;;11.10;9.93;;;;;;;12.79;65.57;97596.03;8156477;29;20244;-84
2022/04/26 09:13:24;;;;;;;11.33;10.20;;;;;;;13.02;65.54;97592.09;8157119;29;20325;-80
2022/04/26 09:17:27;;;;;;;11.63;9.83;;;;;;;12.96;65.34;97591.63;8155132;29;20317;-82
2022/04/26 09:21:30;;;;;;;9.90;9.00;;;;;;;13.16;65.59;97590.44;8157419;29;20244;-81
2022/04/26 09:25:35;;;;;;;10.77;9.77;;;;;;;13.28;65.81;97590.50;8157677;29;20240;-85
2022/04/26 09:29:47;;;;;;;9.57;8.70;;;;;;;13.52;64.78;97596.91;8157186;29;20557;-81
2022/04/26 09:33:52;;;;;;;9.40;8.50;;;;;;;13.53;65.17;97596.81;8155161;29;20236;-82
2022/04/26 09:37:55;;;;;;;8.37;7.60;;;;;;;13.55;64.72;97596.72;8156942;29;20242;-83
2022/04/26 09:42:00;;;;;;;8.30;7.60;;;;;;;13.50;64.31;97599.63;8156610;29;20232;-83
2022/04/26 09:46:05;;;;;;;7.60;6.90;;;;;;;13.61;64.17;97604.13;8156568;29;20260;-83
2022/04/26 09:50:10;;;;;;;8.40;7.60;;;;;;;13.64;64.43;97604.78;8154440;29;20236;-82
2022/04/26 09:54:13;;;;;;;8.33;7.50;;;;;;;13.55;64.80;97614.94;8157038;29;20240;-81
2022/04/26 09:58:20;;;;;;;7.80;7.10;;;;;;;13.58;64.59;97612.97;8156937;29;20236;-82
2022/04/26 10:02:25;;;;;;;7.67;6.97;;;;;;;13.55;64.79;97623.56;8151025;29;20430;-83
2022/04/26 10:06:29;;;;;;;7.70;7.03;;;;;;;13.48;65.00;97620.53;8155813;29;20232;-82
2022/04/26 10:10:32;;;;;;;7.90;7.20;;;;;;;13.58;64.74;97626.00;8155634;29;20243;-81
2022/04/26 10:14:36;;;;;;;7.60;6.90;;;;;;;13.45;65.02;97641.50;8156131;29;20262;-82
2022/04/26 10:18:43;;;;;;;6.27;5.77;;;;;;;13.61;64.75;97637.97;8155892;29;20240;-80
2022/04/26 10:23:00;;;;;;;6.97;6.37;;;;;;;13.68;64.37;97639.25;8156277;29;20243;-82
2022/04/26 10:27:18;;;;;;;8.07;7.37;;;;;;;13.59;64.64;97639.81;8155996;29;20265;-80
2022/04/26 10:31:37;;;;;;;7.83;7.13;;;;;;;13.56;64.68;97648.66;8156111;29;20243;-81
2022/04/26 10:35:41;;;;;;;8.13;7.40;;;;;;;13.67;65.11;97651.44;8155537;29;20550;-84
2022/04/26 10:39:46;;;;;;;8.73;7.93;;;;;;;13.74;64.43;97651.06;8156099;29;20243;-82
2022/04/26 10:44:30;;;;;;;8.23;7.50;;;;;;;13.69;64.43;97649.56;8155521;29;20308;-83
2022/04/26 10:48:34;;;;;;;8.23;7.53;;;;;;;13.50;65.47;97664.66;8138320;29;20232;-79
2022/04/26 10:52:47;;;;;;;8.57;7.77;;;;;;;13.55;65.03;97666.97;8155317;29;20546;-82
2022/04/26 10:56:50;;;;;;;7.00;6.30;;;;;;;13.60;64.70;97680.53;8155951;29;20247;-87
2022/04/26 11:00:53;;;;;;;6.57;6.07;;;;;;;13.60;64.55;97681.38;8155830;29;20236;-84
2022/04/26 11:04:58;;;;;;;6.07;5.57;;;;;;;13.62;64.33;97689.09;8155100;29;20236;-86
2022/04/26 11:09:09;;;;;;;21.27;5.70;;;;;;;14.92;76.05;97684.34;8155338;29;20244;-85
2022/04/26 11:13:37;;;;;;;11.57;5.40;;;;;;;15.44;68.51;97689.50;8155228;29;20246;-87
2022/04/26 11:17:41;;;;;;;6.33;4.17;;;;;;;16.14;62.40;97684.69;8149882;29;20235;-83
2022/04/26 11:21:49;;;;;;;5.87;4.10;;;;;;;16.50;58.87;97683.78;8155302;29;20613;-86
2022/04/26 11:30:24;;;;;;;4.03;3.63;;;;;;;16.21;58.96;97691.97;8103195;29;20239;-84
2022/04/26 11:34:47;;;;;;;5.27;4.03;;;;;;;16.62;56.72;97695.16;8161050;29;20240;-85
2022/04/26 11:38:57;;;;;;;3.63;3.33;;;;;;;16.78;55.24;97693.06;8162177;29;20580;-91
2022/04/26 11:43:07;;;;;;;3.80;3.50;;;;;;;16.08;56.18;97704.22;8160962;29;20236;-86
2022/04/26 11:47:13;;;;;;;3.83;3.50;;;;;;;15.40;57.56;97693.25;8160731;29;20251;-86
2022/04/26 11:51:16;;;;;;;4.10;3.80;;;;;;;15.36;58.07;97699.59;8160815;29;20262;-84
2022/04/26 11:55:21;;;;;;;4.50;4.10;;;;;;;15.25;58.82;97702.94;8160551;29;20244;-86
2022/04/26 11:59:25;;;;;;;4.30;4.00;;;;;;;15.07;58.40;97700.75;8160715;29;20236;-87
2022/04/26 12:03:29;;;;;;;5.00;4.50;;;;;;;14.90;59.26;97702.69;8160701;29;20574;-84
2022/04/26 12:07:33;;;;;;;5.23;4.83;;;;;;;14.71;58.06;97700.44;8159329;29;20458;-86
2022/04/26 12:11:38;;;;;;;5.37;4.73;;;;;;;14.65;59.67;97708.69;8159936;29;20244;-83
2022/04/26 12:15:42;;;;;;;5.13;4.73;;;;;;;14.83;58.16;97709.22;8160208;29;20270;-84
2022/04/26 12:19:50;;;;;;;5.13;4.63;;;;;;;15.00;58.95;97697.69;8160337;29;20236;-90
2022/04/26 12:24:16;;;;;;;4.93;4.43;;;;;;;15.09;57.99;97717.13;8159752;29;20444;-84
2022/04/26 12:28:20;;;;;;;5.40;4.10;;;;;;;14.98;57.23;97720.44;8160607;29;20248;-90
2022/04/26 12:32:26;;;;;;;5.57;5.07;;;;;;;14.91;58.56;97732.19;8160164;29;20235;-86
2022/04/26 12:36:51;;;;;;;5.90;5.10;;;;;;;14.76;57.53;97723.63;8160668;29;20348;-87
2022/04/26 12:41:05;;;;;;;5.63;5.10;;;;;;;14.93;58.18;97730.34;8159339;29;20537;-81
2022/04/26 12:45:16;;;;;;;6.70;5.30;;;;;;;14.88;58.18;97729.81;8159940;29;20558;-89
2022/04/26 12:53:40;;;;;;;5.10;4.47;;;;;;;14.53;57.59;97731.13;8128364;29;20240;-86
2022/04/26 12:57:50;;;;;;;5.33;4.20;;;;;;;14.53;57.03;97728.53;8127996;29;20311;-84
2022/04/26 13:01:54;;;;;;;5.40;4.30;;;;;;;14.38;57.53;97726.91;8128412;29;20430;-88
2022/04/26 13:06:08;;;;;;;4.53;4.13;;;;;;;14.65;56.87;97726.91;8128379;29;20237;-85
2022/04/26 13:10:31;;;;;;;4.73;3.97;;;;;;;14.57;57.16;97740.44;8134324;29;20249;-85
2022/04/26 13:14:34;;;;;;;5.57;3.63;;;;;;;14.78;56.92;97738.22;8128245;29;20244;-85
2022/04/26 13:18:47;;;;;;;4.00;3.70;;;;;;;14.86;56.50;97742.94;8127483;29;20240;-86
2022/04/26 13:22:50;;;;;;;4.47;4.07;;;;;;;14.74;56.13;97754.16;8126957;29;20244;-85
2022/04/26 13:26:53;;;;;;;4.20;3.80;;;;;;;15.06;56.48;97744.25;8126981;29;20461;-82
2022/04/26 13:30:56;;;;;;;5.33;3.77;;;;;;;15.17;55.52;97736.53;8126629;29;20228;-86
2022/04/26 13:35:02;;;;;;;4.03;3.53;;;;;;;15.13;54.77;97732.44;8155192;29;20243;-87
2022/04/26 13:39:06;;;;;;;4.00;3.70;;;;;;;15.14;54.57;97726.31;8158032;29;20251;-87
2022/04/26 13:43:09;;;;;;;4.60;4.20;;;;;;;15.09;54.86;97728.38;8157486;29;20248;-87
2022/04/26 13:47:13;;;;;;;6.27;4.30;;;;;;;15.30;57.15;97730.50;8135060;29;20434;-85
2022/04/26 13:51:18;;;;;;;4.03;3.70;;;;;;;14.97;56.66;97724.81;8126277;29;20241;-85
2022/04/26 13:55:21;;;;;;;3.70;3.40;;;;;;;15.10;56.04;97732.66;8126237;29;20247;-89
2022/04/26 13:59:25;;;;;;;4.33;3.60;;;;;;;15.19;55.66;97747.72;8126823;29;20539;-86
2022/04/26 14:03:28;;;;;;;4.10;3.70;;;;;;;15.21;54.95;97763.22;8127288;29;20531;-93
2022/04/26 14:07:32;;;;;;;4.40;3.97;;;;;;;14.99;55.14;97756.00;8157766;29;20244;-91
2022/04/26 14:11:35;;;;;;;4.37;3.90;;;;;;;14.95;56.68;97757.16;8158744;29;20240;-96
2022/04/26 14:24:21;;;;;;;3.50;3.20;;;;;;;14.97;55.91;97761.31;8126281;29;20247;-89
2022/04/26 14:28:23;;;;;;;4.60;4.20;;;;;;;14.71;55.52;97770.00;8125765;29;20410;-89
2022/04/26 14:32:26;;;;;;;3.97;3.67;;;;;;;14.78;56.20;97769.50;8126236;29;20251;-92
2022/04/26 14:36:30;;;;;;;4.53;4.13;;;;;;;14.52;56.81;97760.72;8126086;29;20562;-91
2022/04/26 14:40:54;;;;;;;7.00;4.47;;;;;;;14.63;57.31;97773.91;8125886;29;20331;-90
2022/04/26 14:44:57;;;;;;;4.60;4.20;;;;;;;14.50;57.74;97772.16;8125637;29;20263;-90
2022/04/26 14:49:00;;;;;;;5.00;4.60;;;;;;;14.66;57.50;97771.13;8125599;29;20243;-91
2022/04/26 14:53:03;;;;;;;5.87;5.37;;;;;;;14.64;57.65;97765.19;8125742;29;20300;-89
2022/04/26 14:57:28;;;;;;;3.80;3.50;;;;;;;14.81;57.02;97766.72;8155793;29;20262;-91
2022/04/26 15:01:31;;;;;;;3.40;3.10;;;;;;;14.82;56.49;97764.94;8156434;29;20254;-91
2022/04/26 15:05:34;;;;;;;3.30;3.00;;;;;;;14.93;56.57;97774.66;8155780;29;20292;-92
2022/04/26 15:09:52;;;;;;;3.00;2.80;;;;;;;14.96;56.28;97782.28;8155902;29;20252;-89
2022/04/26 15:18:17;;;;;;;4.17;3.27;;;;;;;14.81;56.71;97773.66;8155041;29;20231;-90
2022/04/26 15:22:21;;;;;;;3.70;3.40;;;;;;;14.70;57.33;97761.34;8155527;29;20243;-82
2022/04/26 15:26:24;;;;;;;3.90;3.50;;;;;;;14.72;57.48;97764.69;8154512;29;20515;-94
2022/04/26 15:30:29;;;;;;;3.20;3.00;;;;;;;14.84;56.79;97776.09;8155849;29;20244;-89
2022/04/26 15:34:32;;;;;;;4.47;3.33;;;;;;;14.61;57.04;97775.78;8155332;29;20256;-87
2022/04/26 15:38:35;;;;;;;4.60;3.50;;;;;;;14.76;56.85;97773.97;8154737;29;20247;-90
2022/04/26 15:42:38;;;;;;;4.33;3.60;;;;;;;14.78;56.68;97777.31;8155500;29;20243;-92
2022/04/26 15:46:42;;;;;;;4.70;3.40;;;;;;;14.79;56.84;97785.97;8155284;29;20259;-93
2022/04/26 15:50:45;;;;;;;3.87;3.53;;;;;;;14.60;55.98;97792.38;8155308;29;20239;-89
2022/04/26 15:54:48;;;;;;;3.40;3.10;;;;;;;14.88;56.16;97788.00;8154816;29;20240;-88
2022/04/26 15:58:52;;;;;;;3.97;3.60;;;;;;;14.83;55.19;97793.50;8151819;29;20568;-91
2022/04/26 16:02:56;;;;;;;3.60;3.30;;;;;;;14.83;55.19;97793.50;8155018;29;20246;-88
2022/04/26 16:07:00;;;;;;;3.83;3.53;;;;;;;14.78;55.64;97794.75;8156208;29;20244;-89
2022/04/26 16:24:07;;;;;;;5.10;4.63;;;;;;;14.75;56.21;97811.38;8160458;29;20247;-88
2022/04/26 16:28:10;;;;;;;4.97;3.97;;;;;;;14.76;56.81;97814.84;8160142;29;20244;-86
2022/04/26 16:32:13;;;;;;;3.10;2.80;;;;;;;14.62;56.32;97820.91;8160467;29;20244;-88
2022/04/26 16:36:19;;;;;;;3.40;3.10;;;;;;;14.60;56.09;97831.47;8160804;29;20561;-93
2022/04/26 16:40:22;;;;;;;3.40;3.10;;;;;;;14.67;56.05;97829.28;8160662;29;20443;-86
2022/04/26 16:44:25;;;;;;;3.17;2.97;;;;;;;14.67;55.75;97839.72;8160160;29;20240;-90
2022/04/26 16:48:29;;;;;;;3.90;3.07;;;;;;;14.34;55.15;97838.25;8160482;29;20244;-87
2022/04/26 16:52:33;;;;;;;4.17;3.80;;;;;;;14.56;55.57;97849.94;8160234;29;20264;-89
2022/04/26 16:56:37;;;;;;;3.50;3.27;;;;;;;14.51;55.25;97854.59;8160096;29;20240;-82
2022/04/26 17:00:41;;;;;;;3.40;3.10;;;;;;;14.56;55.79;97852.56;8159518;29;20240;-90
2022/04/26 17:04:44;;;;;;;3.67;3.23;;;;;;;14.51;56.10;97860.66;8159531;29;20547;-87
2022/04/26 17:08:49;;;;;;;3.17;2.90;;;;;;;14.48;55.95;97866.88;8159002;29;20443;-89
2022/04/26 17:12:52;;;;;;;3.07;2.57;;;;;;;14.49;55.63;97870.34;8159426;29;20236;-90
2022/04/26 17:16:56;;;;;;;5.50;4.80;;;;;;;14.42;55.32;97862.06;8159392;29;20247;-90
2022/04/26 17:20:59;;;;;;;4.60;4.20;;;;;;;14.14;55.41;97872.50;8159885;29;20236;-91
2022/04/26 17:25:16;;;;;;;3.87;3.57;;;;;;;14.02;55.64;97884.50;8159046;29;20244;-86
2022/04/26 17:29:40;;;;;;;6.70;6.10;;;;;;;14.01;55.81;97883.66;8157133;29;20243;-92
2022/04/26 17:33:44;;;;;;;26.07;6.53;;;;;;;15.48;71.25;97890.19;8158437;29;20553;-84
2022/04/26 17:37:47;;;;;;;10.10;4.87;;;;;;;16.22;63.38;97897.44;8157851;29;20236;-83
2022/04/26 17:41:55;;;;;;;6.80;4.60;;;;;;;16.32;53.08;97895.03;8157325;29;20236;-82
2022/04/26 17:45:59;;;;;;;6.37;3.73;;;;;;;14.99;54.91;97902.03;8156847;29;20262;-76
2022/04/26 17:50:03;;;;;;;5.97;3.90;;;;;;;14.63;56.23;97909.44;8156942;29;20539;-76
2022/04/26 17:58:27;;;;;;;5.43;4.40;;;;;;;14.08;58.15;97915.34;8125194;29;20253;-77
2022/04/26 18:02:31;;;;;;;9.93;8.93;;;;;;;14.08;58.03;97915.34;8125490;29;20262;-75
2022/04/26 18:06:35;;;;;;;7.53;3.70;;;;;;;13.97;59.01;97917.75;8128249;29;20454;-75
2022/04/26 18:10:41;;;;;;;6.87;3.90;;;;;;;13.77;59.35;97918.94;8156472;29;20275;-76
2022/04/26 18:14:46;;;;;;;4.23;3.80;;;;;;;13.77;58.59;97916.34;8156172;29;20244;-76
2022/04/26 18:18:49;;;;;;;6.90;6.30;;;;;;;13.71;58.63;97922.72;8156192;29;20437;-76
2022/04/26 18:22:52;;;;;;;4.63;3.90;;;;;;;13.65;59.12;97921.31;8156177;29;20542;-76
2022/04/26 18:26:55;;;;;;;3.80;3.40;;;;;;;13.64;59.09;97931.81;8156212;29;20244;-76
2022/04/26 18:31:00;;;;;;;4.53;3.37;;;;;;;13.59;58.69;97933.81;8156053;29;20239;-76
2022/04/26 18:35:03;;;;;;;9.40;5.70;;;;;;;13.53;59.42;97942.00;8155491;29;20256;-77
2022/04/26 18:39:08;;;;;;;5.30;4.33;;;;;;;13.51;60.13;97941.25;8155465;29;20240;-77
2022/04/26 18:43:12;;;;;;;6.30;4.03;;;;;;;13.48;60.01;97944.88;8155692;29;20400;-76
2022/04/26 18:47:17;;;;;;;7.67;6.90;;;;;;;13.44;60.31;97948.53;8154895;29;20267;-77
2022/04/26 18:51:20;;;;;;;4.40;4.00;;;;;;;13.38;60.61;97959.28;8154947;29;20240;-76
2022/04/26 18:55:23;;;;;;;4.57;4.07;;;;;;;13.35;60.66;97956.88;8154665;29;20439;-75
2022/04/26 18:59:26;;;;;;;4.97;3.30;;;;;;;13.57;63.02;97964.31;8155176;29;20240;-76
2022/04/26 19:03:31;;;;;;;7.13;5.23;;;;;;;13.30;60.17;97968.34;8154854;29;20442;-77
2022/04/26 19:07:39;;;;;;;5.30;4.47;;;;;;;13.30;60.58;97978.75;8154485;29;20295;-77
2022/04/26 19:16:03;;;;;;;6.70;5.80;;;;;;;13.30;60.88;97996.13;8154357;29;20247;-76
2022/04/26 19:20:10;;;;;;;7.13;6.43;;;;;;;13.29;61.24;97992.66;8154767;29;20244;-76
2022/04/26 19:24:14;;;;;;;10.33;8.50;;;;;;;13.30;61.00;97999.56;8154739;29;20555;-76
2022/04/26 19:28:18;;;;;;;12.30;10.00;;;;;;;13.19;61.26;97998.44;8154641;29;20284;-76
2022/04/26 19:32:23;;;;;;;9.10;7.43;;;;;;;13.19;61.52;97999.28;8154615;29;20240;-76
2022/04/26 19:36:28;;;;;;;8.53;6.37;;;;;;;13.23;61.60;98011.22;8153908;29;20251;-76
2022/04/26 19:40:31;;;;;;;5.97;5.30;;;;;;;13.17;61.53;98003.72;8154529;29;20421;-76
2022/04/26 19:44:34;;;;;;;6.73;6.03;;;;;;;13.18;61.60;98007.19;8154334;29;20240;-75
2022/04/26 19:48:38;;;;;;;9.97;8.23;;;;;;;13.16;62.43;98002.06;8154323;29;20442;-76
2022/04/26 19:52:42;;;;;;;11.23;8.90;;;;;;;13.52;71.45;98013.16;8157223;29;20240;-74
2022/04/26 19:56:46;;;;;;;14.02;11.77;;;;;;;13.46;60.93;98014.31;8160109;29;20595;-76
2022/04/26 20:00:50;;;;;;;9.47;8.57;;;;;;;13.24;61.78;98022.44;8160390;29;20236;-76
2022/04/26 20:04:53;;;;;;;8.00;7.30;;;;;;;13.21;61.86;98022.59;8160042;29;20275;-76
2022/04/26 20:08:58;;;;;;;7.37;6.67;;;;;;;13.19;61.73;98027.06;8160014;29;20266;-75
2022/04/26 20:13:01;;;;;;;9.13;7.30;;;;;;;13.26;61.39;98028.41;8160028;29;20243;-75
2022/04/26 20:17:04;;;;;;;6.73;6.03;;;;;;;13.23;61.65;98024.22;8128644;29;20252;-76
2022/04/26 20:21:08;;;;;;;8.27;5.50;;;;;;;13.18;61.59;98028.81;8128678;29;20240;-75
2022/04/26 20:25:14;;;;;;;6.90;5.73;;;;;;;13.15;61.42;98023.78;8128278;29;20245;-76
2022/04/26 20:33:46;;;;;;;5.83;5.23;;;;;;;13.08;62.00;98027.66;8094132;29;20236;-76
2022/04/26 20:37:49;;;;;;;10.40;9.40;;;;;;;13.05;61.75;98028.63;8128190;29;20550;-74
2022/04/26 20:41:59;;;;;;;11.20;9.13;;;;;;;13.08;61.61;98036.28;8127198;29;20244;-75
2022/04/26 20:46:02;;;;;;;8.77;7.90;;;;;;;13.16;61.95;98038.47;8147301;29;20250;-76
2022/04/26 20:50:06;;;;;;;9.90;7.90;;;;;;;13.09;61.90;98040.53;8158888;29;20250;-76
2022/04/26 20:54:09;;;;;;;10.30;9.30;;;;;;;13.06;61.56;98038.13;8158836;29;20240;-76
2022/04/26 20:58:14;;;;;;;9.80;8.63;;;;;;;13.14;62.18;98047.28;8158847;29;20244;-77
2022/04/26 21:02:17;;;;;;;9.15;8.25;;;;;;;13.48;60.86;98051.53;8157227;29;20692;-77
2022/04/26 21:06:20;;;;;;;8.20;7.40;;;;;;;13.13;62.11;98045.59;8158294;29;20255;-76
2022/04/26 21:10:23;;;;;;;8.93;8.03;;;;;;;13.16;62.65;98056.66;8157977;29;20244;-75
2022/04/26 21:14:27;;;;;;;8.10;7.30;;;;;;;13.15;62.29;98054.16;8158187;29;20244;-75
2022/04/26 21:18:30;;;;;;;9.47;8.10;;;;;;;13.19;62.13;98066.06;8158064;29;20431;-75
2022/04/26 21:22:34;;;;;;;7.97;6.47;;;;;;;13.15;61.84;98062.78;8158177;29;20244;-76
2022/04/26 21:26:37;;;;;;;8.23;6.90;;;;;;;13.10;61.88;98064.81;8157876;29;20258;-75
2022/04/26 21:30:41;;;;;;;7.60;6.83;;;;;;;13.07;62.01;98068.38;8157740;29;20244;-76
2022/04/26 21:34:45;;;;;;;8.43;7.63;;;;;;;13.10;62.32;98070.00;8157743;29;20240;-77
2022/04/26 21:38:49;;;;;;;7.60;6.90;;;;;;;13.11;61.98;98069.91;8157752;29;20246;-76
2022/04/26 21:42:52;;;;;;;7.90;7.10;;;;;;;13.11;62.39;98074.25;8157187;29;20523;-76
2022/04/26 21:46:56;;;;;;;8.43;7.67;;;;;;;13.09;62.72;98068.31;8157111;29;20442;-75
2022/04/26 21:55:20;;;;;;;8.63;7.10;;;;;;;13.06;62.37;98071.06;8156792;29;20250;-75
2022/04/26 21:59:23;;;;;;;8.23;7.43;;;;;;;13.04;62.46;98075.50;8156796;29;20240;-75
2022/04/26 22:03:27;;;;;;;7.50;6.80;;;;;;;13.03;62.47;98077.28;8156553;29;20240;-77
2022/04/26 22:07:30;;;;;;;10.67;8.43;;;;;;;13.02;62.66;98078.19;8156352;29;20251;-75
2022/04/26 22:11:34;;;;;;;11.73;8.43;;;;;;;13.00;62.39;98080.00;8156690;29;20444;-75
2022/04/26 22:15:38;;;;;;;8.87;8.03;;;;;;;13.00;62.62;98081.78;8155904;29;20248;-75
2022/04/26 22:19:43;;;;;;;8.23;7.43;;;;;;;13.02;62.76;98083.41;8156260;29;20445;-75
2022/04/26 22:23:47;;;;;;;8.17;7.37;;;;;;;12.98;62.82;98087.06;8156262;29;20220;-75
2022/04/26 22:27:53;;;;;;;8.53;7.73;;;;;;;13.04;62.93;98085.91;8156151;29;20239;-74
2022/04/26 22:31:55;;;;;;;8.60;7.80;;;;;;;13.02;62.77;98092.94;8156081;29;20243;-76
2022/04/26 22:36:00;;;;;;;9.40;8.60;;;;;;;12.97;63.13;98093.19;8155955;29;20250;-76
2022/04/26 22:40:04;;;;;;;10.03;9.00;;;;;;;12.96;63.34;98095.88;8155858;29;20242;-75
2022/04/26 22:44:07;;;;;;;7.67;6.97;;;;;;;12.96;63.41;98106.25;8155712;29;20565;-76
2022/04/26 22:48:10;;;;;;;11.60;8.90;;;;;;;13.02;63.64;98106.81;8125891;29;20245;-76
2022/04/26 22:52:14;;;;;;;10.17;8.30;;;;;;;12.93;63.86;98107.28;8124170;29;20280;-75
2022/04/26 22:56:19;;;;;;;8.40;7.60;;;;;;;13.03;63.60;98116.25;8124170;29;20435;-75
2022/04/26 23:00:22;;;;;;;8.33;7.60;;;;;;;12.97;63.66;98119.19;8123656;29;20259;-73
2022/04/26 23:04:25;;;;;;;7.67;6.97;;;;;;;13.05;63.62;98122.22;8123557;29;20245;-76
2022/04/26 23:08:29;;;;;;;9.33;8.53;;;;;;;12.85;63.78;98125.88;8123541;29;20245;-75
2022/04/26 23:12:33;;;;;;;8.73;7.73;;;;;;;12.89;63.87;98132.56;8123906;29;20248;-78
2022/04/26 23:16:38;;;;;;;11.37;7.87;;;;;;;12.95;63.82;98128.81;8123795;29;20443;-79
2022/04/26 23:20:41;;;;;;;9.03;8.23;;;;;;;12.94;63.93;98137.53;8123627;29;20660;-79
2022/04/26 23:24:45;;;;;;;10.50;8.87;;;;;;;13.02;63.81;98129.34;8123430;29;20233;-80
2022/04/26 23:28:48;;;;;;;10.00;9.00;;;;;;;12.98;64.08;98138.22;8122432;29;20411;-80
2022/04/26 23:32:51;;;;;;;11.20;10.13;;;;;;;12.84;64.06;98134.56;8123331;29;20237;-79
2022/04/26 23:36:54;;;;;;;11.40;10.40;;;;;;;12.31;65.76;98141.50;8123430;29;20241;-79
2022/04/26 23:40:59;;;;;;;11.50;10.50;;;;;;;12.58;64.94;98138.47;8123170;29;20236;-79
2022/04/26 23:45:05;;;;;;;13.67;12.33;;;;;;;12.69;64.15;98137.94;8123193;29;20315;-80